Time;durP1;ratioP1;P1;durP2;ratioP2;P2;SDS_P1;SDS_P2;PMS_P1;PMS_P2;Temp;Humidity;BMP_temperature;BMP_pressure;BME280_temperature;BME280_humidity;BME280_pressure;Samples;Min_cycle;Max_cycle;Signal;HPM_P1;HPM_P2
2021/09/26 00:00:09;;;;;;;76.10;44.55;;;17.30;99.90;;;;;;5100396;28;20379;-81
2021/09/26 00:02:35;;;;;;;77.80;45.55;;;17.40;99.90;;;;;;5082777;28;20443;-81
2021/09/26 00:05:01;;;;;;;81.82;45.22;;;17.30;99.90;;;;;;5102688;28;20066;-82
2021/09/26 00:07:26;;;;;;;78.47;45.45;;;17.30;99.90;;;;;;5087475;28;20043;-83
2021/09/26 00:09:52;;;;;;;89.95;46.05;;;17.40;99.90;;;;;;5105178;28;20063;-82
2021/09/26 00:12:18;;;;;;;76.05;44.72;;;17.30;99.90;;;;;;5104208;28;20044;-81
2021/09/26 00:14:44;;;;;;;68.95;43.42;;;17.30;99.90;;;;;;5105269;28;20047;-80
2021/09/26 00:17:10;;;;;;;78.78;46.53;;;17.30;99.90;;;;;;5101436;27;20044;-81
2021/09/26 00:19:36;;;;;;;80.88;45.53;;;17.30;99.90;;;;;;5081824;28;20495;-83
2021/09/26 00:22:02;;;;;;;79.35;45.15;;;17.30;99.90;;;;;;5100829;28;20188;-81
2021/09/26 00:24:28;;;;;;;82.50;45.83;;;17.30;99.90;;;;;;5087924;28;20036;-82
2021/09/26 00:26:53;;;;;;;79.25;44.67;;;17.30;99.90;;;;;;5105091;27;20390;-81
2021/09/26 00:29:19;;;;;;;75.15;44.53;;;17.30;99.90;;;;;;5088108;28;20374;-83
2021/09/26 00:31:45;;;;;;;74.90;43.55;;;17.30;99.90;;;;;;5110833;27;20032;-81
2021/09/26 00:34:10;;;;;;;70.13;42.78;;;17.30;99.90;;;;;;5096463;28;20036;-82
2021/09/26 00:36:36;;;;;;;82.95;43.72;;;17.20;99.90;;;;;;5099351;28;20039;-82
2021/09/26 00:39:03;;;;;;;65.55;41.55;;;17.30;99.90;;;;;;5088360;28;20075;-82
2021/09/26 00:41:30;;;;;;;75.38;42.67;;;17.30;99.90;;;;;;5089571;28;20035;-81
2021/09/26 00:43:56;;;;;;;70.70;42.88;;;17.30;99.90;;;;;;5075489;28;20427;-82
2021/09/26 00:46:22;;;;;;;74.63;42.97;;;17.30;99.90;;;;;;5088695;28;20124;-81
2021/09/26 00:48:47;;;;;;;78.10;43.03;;;17.30;99.90;;;;;;5097697;28;20036;-83
2021/09/26 00:51:13;;;;;;;71.38;42.75;;;17.40;99.90;;;;;;5085525;28;20089;-82
2021/09/26 00:53:43;;;;;;;80.47;43.28;;;17.30;99.90;;;;;;5088138;28;20389;-82
2021/09/26 00:56:11;;;;;;;68.45;41.47;;;17.30;99.90;;;;;;5084442;28;20056;-82
2021/09/26 00:58:37;;;;;;;69.93;40.72;;;17.30;99.90;;;;;;5084630;28;20166;-82
2021/09/26 01:01:03;;;;;;;70.18;42.13;;;17.30;99.90;;;;;;5101452;27;20028;-81
2021/09/26 01:03:29;;;;;;;70.80;40.22;;;17.30;99.90;;;;;;5089051;28;20089;-82
2021/09/26 01:06:16;;;;;;;66.97;40.10;;;17.30;99.90;;;;;;5100987;28;20115;-81
2021/09/26 01:09:06;;;;;;;74.00;41.13;;;17.30;99.90;;;;;;5083143;28;20498;-80
2021/09/26 01:11:50;;;;;;;61.33;38.88;;;17.30;99.90;;;;;;5099082;27;20491;-83
2021/09/26 01:14:49;;;;;;;65.05;38.75;;;17.30;99.90;;;;;;5103490;27;20071;-83
2021/09/26 01:17:20;;;;;;;63.58;39.00;;;17.30;99.90;;;;;;5030099;28;20053;-83
2021/09/26 01:19:55;;;;;;;68.05;38.92;;;17.30;99.90;;;;;;5020278;28;20119;-82
2021/09/26 01:22:36;;;;;;;;;;;17.30;99.90;;;;;;5040041;28;20037;-84
2021/09/26 01:25:17;;;;;;;61.63;36.90;;;17.30;99.90;;;;;;5024692;28;19916;-82
2021/09/26 01:28:17;;;;;;;63.95;39.38;;;17.30;99.90;;;;;;5014770;28;20044;-81
2021/09/26 01:30:52;;;;;;;68.47;38.47;;;17.30;99.90;;;;;;5014066;28;20049;-81
2021/09/26 01:33:29;;;;;;;64.82;37.22;;;17.20;99.90;;;;;;5012927;28;20562;-81
2021/09/26 01:35:57;;;;;;;55.15;35.30;;;17.30;99.90;;;;;;5013580;28;20559;-81
2021/09/26 01:38:32;;;;;;;56.97;35.30;;;17.30;99.90;;;;;;5032675;28;20048;-83
2021/09/26 01:41:06;;;;;;;61.42;35.42;;;17.30;99.90;;;;;;5033593;28;20068;-80
2021/09/26 01:43:39;;;;;;;63.83;34.13;;;17.30;99.90;;;;;;5026447;28;20119;-82
2021/09/26 01:46:08;;;;;;;58.85;34.53;;;17.20;99.90;;;;;;5049735;28;20551;-82
2021/09/26 01:48:40;;;;;;;55.38;31.73;;;17.20;99.90;;;;;;5028499;28;20152;-80
2021/09/26 01:51:06;;;;;;;54.92;33.80;;;17.30;99.90;;;;;;5031207;28;20112;-82
2021/09/26 01:53:33;;;;;;;57.60;33.33;;;17.20;99.90;;;;;;5076747;28;20427;-82
2021/09/26 01:56:00;;;;;;;57.80;33.95;;;17.30;99.90;;;;;;5099607;28;20047;-82
2021/09/26 01:58:28;;;;;;;62.10;34.40;;;17.30;99.90;;;;;;5101286;28;20039;-83
2021/09/26 02:00:53;;;;;;;58.20;34.30;;;17.30;99.90;;;;;;5081695;28;20058;-81
2021/09/26 02:03:22;;;;;;;59.40;34.50;;;17.30;99.90;;;;;;5096914;28;20044;-82
2021/09/26 02:05:48;;;;;;;58.88;34.42;;;17.30;99.90;;;;;;5102256;28;20059;-82
2021/09/26 02:08:15;;;;;;;58.35;34.15;;;17.20;99.90;;;;;;5080818;28;20044;-81
2021/09/26 02:10:43;;;;;;;58.17;35.03;;;17.20;99.90;;;;;;5079304;28;20153;-81
2021/09/26 02:13:09;;;;;;;61.67;37.35;;;17.20;99.90;;;;;;5086174;28;20127;-82
2021/09/26 02:15:36;;;;;;;60.25;35.63;;;17.30;99.90;;;;;;5099873;27;20168;-83
2021/09/26 02:18:04;;;;;;;62.40;36.90;;;17.20;99.90;;;;;;5097682;28;20105;-81
2021/09/26 02:20:30;;;;;;;57.72;33.92;;;17.20;99.90;;;;;;5097385;28;20108;-80
2021/09/26 02:22:58;;;;;;;64.20;35.83;;;17.20;99.90;;;;;;5093897;27;20454;-82
2021/09/26 02:25:24;;;;;;;66.18;37.28;;;17.20;99.90;;;;;;5080325;28;20055;-82
2021/09/26 02:27:50;;;;;;;56.85;35.40;;;17.20;99.90;;;;;;5095758;28;20051;-82
2021/09/26 02:30:17;;;;;;;62.63;35.97;;;17.30;99.90;;;;;;5079826;28;20413;-82
2021/09/26 02:32:44;;;;;;;63.47;36.05;;;17.20;99.90;;;;;;5082869;28;20104;-82
2021/09/26 02:35:11;;;;;;;59.67;37.00;;;17.30;99.90;;;;;;5101523;28;20118;-81
2021/09/26 02:37:37;;;;;;;62.47;35.92;;;17.20;99.90;;;;;;5097958;28;20121;-81
2021/09/26 02:40:05;;;;;;;65.30;37.05;;;17.20;99.90;;;;;;5102911;28;20134;-81
2021/09/26 02:42:42;;;;;;;64.07;36.72;;;17.20;99.90;;;;;;5080035;28;20035;-82
2021/09/26 02:45:38;;;;;;;63.38;36.38;;;17.20;99.90;;;;;;5096314;28;20137;-82
2021/09/26 02:48:11;;;;;;;66.78;36.20;;;17.20;99.90;;;;;;5092785;28;20486;-79
2021/09/26 02:50:39;;;;;;;63.92;37.05;;;17.20;99.90;;;;;;5100023;28;20042;-81
2021/09/26 02:53:07;;;;;;;66.85;36.10;;;17.20;99.90;;;;;;5093809;28;20047;-80
2021/09/26 02:55:34;;;;;;;64.00;35.97;;;17.20;99.90;;;;;;5096119;27;20036;-81
2021/09/26 02:58:00;;;;;;;64.45;37.58;;;17.20;99.90;;;;;;5092394;28;20039;-80
2021/09/26 03:00:32;;;;;;;65.40;36.55;;;17.20;99.90;;;;;;5095515;28;20032;-81
2021/09/26 03:03:08;;;;;;;65.63;37.78;;;17.20;99.90;;;;;;5082091;28;20059;-79
2021/09/26 03:05:35;;;;;;;65.47;38.85;;;17.20;99.90;;;;;;5096141;27;20056;-80
2021/09/26 03:08:01;;;;;;;67.20;37.40;;;17.20;99.90;;;;;;5088019;28;20423;-79
2021/09/26 03:10:27;;;;;;;60.92;37.28;;;17.20;99.90;;;;;;5099650;28;20189;-79
2021/09/26 03:12:52;;;;;;;67.60;39.97;;;17.20;99.90;;;;;;5101149;27;20217;-80
2021/09/26 03:15:18;;;;;;;64.97;38.53;;;17.20;99.90;;;;;;5103974;28;20077;-82
2021/09/26 03:17:44;;;;;;;73.50;39.53;;;17.10;99.90;;;;;;5126735;27;20118;-80
2021/09/26 03:20:10;;;;;;;69.03;38.17;;;17.10;99.90;;;;;;5085061;28;20062;-80
2021/09/26 03:22:35;;;;;;;63.60;39.00;;;17.10;99.90;;;;;;5084110;28;20132;-79
2021/09/26 03:25:01;;;;;;;66.85;38.35;;;17.10;99.90;;;;;;5118479;27;20051;-81
2021/09/26 03:27:27;;;;;;;64.47;38.05;;;17.10;99.90;;;;;;5089290;28;20047;-81
2021/09/26 03:29:52;;;;;;;72.90;39.42;;;17.10;99.90;;;;;;5107968;27;20039;-78
2021/09/26 03:32:18;;;;;;;65.97;39.03;;;17.10;99.90;;;;;;5106885;28;20039;-81
2021/09/26 03:34:43;;;;;;;58.95;36.70;;;17.00;99.90;;;;;;5105242;28;20070;-80
2021/09/26 03:37:09;;;;;;;70.43;38.28;;;16.90;99.90;;;;;;5103669;28;20063;-81
2021/09/26 03:39:40;;;;;;;60.25;37.63;;;16.90;99.90;;;;;;5076548;28;20034;-81
2021/09/26 03:42:06;;;;;;;69.68;39.83;;;16.90;99.90;;;;;;5103029;28;20040;-80
2021/09/26 03:44:32;;;;;;;70.93;40.00;;;16.80;99.90;;;;;;5078890;27;20062;-79
2021/09/26 03:46:58;;;;;;;71.97;39.85;;;16.70;99.90;;;;;;5099915;27;20104;-82
2021/09/26 03:49:24;;;;;;;64.72;38.40;;;16.60;99.90;;;;;;5085803;27;20381;-82
2021/09/26 03:51:50;;;;;;;64.43;40.38;;;16.60;99.90;;;;;;5104023;27;20048;-81
2021/09/26 03:54:17;;;;;;;65.03;39.55;;;16.60;99.90;;;;;;5105414;27;20123;-79
2021/09/26 03:56:44;;;;;;;73.95;40.53;;;16.50;99.90;;;;;;5097219;27;20066;-80
2021/09/26 03:59:12;;;;;;;76.15;40.83;;;16.50;99.90;;;;;;5114484;27;20087;-81
2021/09/26 04:01:39;;;;;;;77.18;41.15;;;16.50;99.90;;;;;;5108620;27;20043;-80
2021/09/26 04:04:05;;;;;;;72.93;40.30;;;16.50;99.90;;;;;;5106953;27;20104;-79
2021/09/26 04:06:31;;;;;;;70.63;39.20;;;16.40;99.90;;;;;;5090179;27;20047;-80
2021/09/26 04:08:57;;;;;;;68.80;39.85;;;16.40;99.90;;;;;;5124361;27;20031;-81
2021/09/26 04:11:23;;;;;;;70.28;40.65;;;16.30;99.90;;;;;;5122044;27;20035;-80
2021/09/26 04:13:48;;;;;;;68.70;39.85;;;16.30;99.90;;;;;;5108027;27;20109;-79
2021/09/26 04:16:14;;;;;;;68.55;39.30;;;16.40;99.90;;;;;;5105753;27;20047;-80
2021/09/26 04:18:40;;;;;;;71.57;40.92;;;16.30;99.90;;;;;;5107405;27;20068;-79
2021/09/26 04:21:07;;;;;;;70.72;40.83;;;16.30;99.90;;;;;;5107449;27;20099;-81
2021/09/26 04:23:33;;;;;;;63.10;38.97;;;16.20;99.90;;;;;;5083055;28;20056;-81
2021/09/26 04:25:58;;;;;;;68.90;39.70;;;16.20;99.90;;;;;;5106227;27;20043;-79
2021/09/26 04:28:24;;;;;;;67.47;40.38;;;16.20;99.90;;;;;;5094287;27;20035;-82
2021/09/26 04:30:50;;;;;;;63.90;39.35;;;16.20;99.90;;;;;;5108916;27;20081;-79
2021/09/26 04:33:16;;;;;;;75.13;41.72;;;16.20;99.90;;;;;;5104261;27;20499;-81
2021/09/26 04:35:41;;;;;;;75.50;40.55;;;16.20;99.90;;;;;;5105910;27;20047;-79
2021/09/26 04:38:07;;;;;;;75.88;40.35;;;16.10;99.90;;;;;;5109022;27;20039;-79
2021/09/26 04:40:33;;;;;;;73.18;39.58;;;16.10;99.90;;;;;;5113167;27;20076;-82
2021/09/26 04:42:59;;;;;;;76.60;41.50;;;16.10;99.90;;;;;;5098723;27;20114;-80
2021/09/26 04:45:24;;;;;;;64.50;39.45;;;16.10;99.90;;;;;;5086572;27;20054;-83
2021/09/26 04:47:50;;;;;;;68.28;40.22;;;16.10;99.90;;;;;;5108474;27;20382;-79
2021/09/26 04:50:16;;;;;;;74.30;40.33;;;16.10;99.90;;;;;;5105618;27;20047;-81
2021/09/26 04:52:42;;;;;;;74.00;41.65;;;16.10;99.90;;;;;;5104190;27;20125;-81
2021/09/26 04:55:08;;;;;;;73.60;39.67;;;16.00;99.90;;;;;;5082245;27;20141;-81
2021/09/26 04:57:35;;;;;;;72.55;38.80;;;16.00;99.90;;;;;;5086352;27;20051;-80
2021/09/26 05:00:00;;;;;;;76.63;41.28;;;16.00;99.90;;;;;;5102698;27;20455;-80
2021/09/26 05:02:26;;;;;;;68.15;38.05;;;15.80;99.90;;;;;;5108001;27;20038;-81
2021/09/26 05:04:52;;;;;;;77.20;42.38;;;15.90;99.90;;;;;;5106144;27;20051;-79
2021/09/26 05:07:18;;;;;;;74.13;41.55;;;15.90;99.90;;;;;;5103645;27;20134;-81
2021/09/26 05:09:43;;;;;;;76.10;41.55;;;15.80;99.90;;;;;;5088927;27;20039;-80
2021/09/26 05:12:09;;;;;;;73.05;40.95;;;15.90;99.90;;;;;;5112976;27;20136;-81
2021/09/26 05:14:35;;;;;;;82.30;41.30;;;15.80;99.90;;;;;;5093373;27;20043;-81
2021/09/26 05:17:02;;;;;;;78.75;42.92;;;15.80;99.90;;;;;;5109511;27;20054;-81
2021/09/26 05:19:28;;;;;;;79.20;43.22;;;15.80;99.90;;;;;;5088023;27;20047;-80
2021/09/26 05:21:53;;;;;;;80.63;42.13;;;15.80;99.90;;;;;;5091515;27;20445;-81
2021/09/26 05:24:19;;;;;;;76.95;41.20;;;15.80;99.90;;;;;;5105352;27;20027;-82
2021/09/26 05:26:44;;;;;;;78.68;41.50;;;15.70;99.90;;;;;;5113728;27;20035;-80
2021/09/26 05:29:10;;;;;;;78.22;41.17;;;15.70;99.90;;;;;;5103423;27;20065;-82
2021/09/26 05:31:38;;;;;;;74.28;41.47;;;15.70;99.90;;;;;;5088373;27;20034;-80
2021/09/26 05:34:04;;;;;;;70.75;40.33;;;15.60;99.90;;;;;;5085292;27;20039;-83
2021/09/26 05:36:29;;;;;;;71.45;38.17;;;15.60;99.90;;;;;;5102142;27;20047;-77
2021/09/26 05:38:55;;;;;;;38.40;25.08;;;15.70;99.90;;;;;;5107310;27;20039;-77
2021/09/26 05:41:21;;;;;;;50.50;30.70;;;15.80;99.90;;;;;;5086474;27;20058;-77
2021/09/26 05:43:47;;;;;;;54.60;33.60;;;16.00;99.90;;;;;;5101853;27;20060;-82
2021/09/26 05:46:13;;;;;;;60.60;36.58;;;16.00;99.90;;;;;;5075922;27;20362;-82
2021/09/26 05:48:39;;;;;;;59.03;37.78;;;15.90;99.90;;;;;;5124267;27;20035;-83
2021/09/26 05:51:06;;;;;;;66.72;37.15;;;15.90;99.90;;;;;;5092516;27;20395;-83
2021/09/26 05:53:32;;;;;;;65.25;37.33;;;15.80;99.90;;;;;;5087525;27;20050;-84
2021/09/26 05:55:57;;;;;;;66.13;39.03;;;15.70;99.90;;;;;;5108780;27;20031;-82
2021/09/26 05:58:23;;;;;;;69.43;38.22;;;15.70;99.90;;;;;;5090523;27;20047;-83
2021/09/26 06:00:49;;;;;;;60.00;35.88;;;15.70;99.90;;;;;;5093521;27;20038;-80
2021/09/26 06:03:15;;;;;;;65.55;37.78;;;15.70;99.90;;;;;;5103146;27;20044;-82
2021/09/26 06:05:42;;;;;;;54.00;32.97;;;15.70;99.90;;;;;;5087269;27;20074;-83
2021/09/26 06:08:08;;;;;;;60.28;34.75;;;15.70;99.90;;;;;;5108227;27;20115;-83
2021/09/26 06:10:33;;;;;;;55.78;35.75;;;15.70;99.90;;;;;;5091145;27;20035;-82
2021/09/26 06:12:59;;;;;;;50.72;32.92;;;15.60;99.90;;;;;;5090918;27;20467;-81
2021/09/26 06:15:25;;;;;;;54.22;33.83;;;15.60;99.90;;;;;;5100753;27;20061;-80
2021/09/26 06:17:51;;;;;;;54.22;33.97;;;15.70;99.90;;;;;;5109237;27;20082;-81
2021/09/26 06:20:25;;;;;;;53.85;34.63;;;15.60;99.90;;;;;;5123700;27;20066;-81
2021/09/26 06:22:51;;;;;;;54.60;35.10;;;15.60;99.90;;;;;;5130288;27;20035;-83
2021/09/26 06:25:18;;;;;;;54.72;33.70;;;15.60;99.90;;;;;;5116291;27;20040;-81
2021/09/26 06:27:43;;;;;;;57.97;35.05;;;15.70;99.90;;;;;;5117677;27;20107;-83
2021/09/26 06:30:09;;;;;;;55.03;34.58;;;15.70;99.90;;;;;;5111416;27;20150;-82
2021/09/26 06:32:35;;;;;;;55.38;33.65;;;15.60;99.90;;;;;;5111902;27;20550;-81
2021/09/26 06:35:04;;;;;;;55.38;34.47;;;15.70;99.90;;;;;;5102957;28;20043;-79
2021/09/26 06:37:30;;;;;;;53.38;32.80;;;15.70;99.90;;;;;;5092984;27;20472;-81
2021/09/26 06:39:56;;;;;;;53.30;32.75;;;15.70;99.90;;;;;;5129542;27;20154;-79
2021/09/26 06:42:23;;;;;;;47.13;32.25;;;15.70;99.90;;;;;;5103697;27;20043;-80
2021/09/26 06:44:49;;;;;;;48.90;32.72;;;15.80;99.90;;;;;;5104236;27;20122;-81
2021/09/26 06:47:15;;;;;;;51.60;30.73;;;15.70;99.90;;;;;;5104496;27;20057;-77
2021/09/26 06:49:40;;;;;;;46.65;31.40;;;15.70;99.90;;;;;;5101572;28;20611;-80
2021/09/26 06:52:06;;;;;;;49.72;32.13;;;15.80;99.90;;;;;;5118000;27;20073;-77
2021/09/26 06:54:32;;;;;;;43.58;29.80;;;15.80;99.90;;;;;;5077304;27;20046;-81
2021/09/26 06:56:59;;;;;;;46.70;30.60;;;15.80;99.90;;;;;;5104430;27;20053;-82
2021/09/26 06:59:25;;;;;;;43.22;30.65;;;15.80;99.90;;;;;;5087923;27;20054;-80
2021/09/26 07:01:51;;;;;;;48.63;30.13;;;15.80;99.90;;;;;;5085413;27;20174;-80
2021/09/26 07:04:16;;;;;;;44.80;29.95;;;15.80;99.90;;;;;;5106196;27;20353;-80
2021/09/26 07:06:42;;;;;;;42.13;27.95;;;15.80;99.90;;;;;;5103688;27;20047;-78
2021/09/26 07:09:08;;;;;;;41.85;28.77;;;15.90;99.90;;;;;;5104978;27;20035;-81
2021/09/26 07:11:34;;;;;;;41.17;28.42;;;15.90;99.90;;;;;;5104193;27;20049;-82
2021/09/26 07:14:00;;;;;;;40.28;27.73;;;15.90;99.90;;;;;;5086099;28;20152;-79
2021/09/26 07:16:27;;;;;;;36.70;26.63;;;16.00;99.90;;;;;;5085660;28;20047;-80
2021/09/26 07:18:53;;;;;;;624.65;408.67;;;16.00;99.90;;;;;;5117258;27;20044;-77
2021/09/26 07:21:19;;;;;;;737.05;504.23;;;16.20;99.90;;;;;;5104033;28;20054;-77
2021/09/26 07:23:45;;;;;;;356.38;222.77;;;16.20;99.90;;;;;;5102438;27;20031;-77
2021/09/26 07:26:11;;;;;;;614.63;426.27;;;16.60;99.90;;;;;;5090102;28;20035;-77
2021/09/26 07:28:37;;;;;;;348.70;200.70;;;16.70;99.90;;;;;;5101714;28;20043;-77
2021/09/26 07:31:02;;;;;;;193.55;109.57;;;16.90;99.90;;;;;;5108300;28;20092;-76
2021/09/26 07:33:28;;;;;;;54.67;35.45;;;16.80;99.90;;;;;;5111482;28;20504;-75
2021/09/26 07:35:54;;;;;;;36.80;25.85;;;16.90;99.90;;;;;;5092138;28;20146;-80
2021/09/26 07:38:20;;;;;;;90.40;56.45;;;16.90;99.90;;;;;;5092035;28;20039;-76
2021/09/26 07:40:46;;;;;;;62.38;40.60;;;17.00;99.90;;;;;;5087850;28;20719;-80
2021/09/26 07:43:12;;;;;;;34.95;24.20;;;17.00;99.90;;;;;;5099115;28;20125;-77
2021/09/26 07:45:38;;;;;;;67.72;41.03;;;17.00;99.90;;;;;;5082985;28;20100;-78
2021/09/26 07:48:05;;;;;;;45.67;31.67;;;17.00;99.90;;;;;;5098742;28;20050;-77
2021/09/26 07:50:31;;;;;;;46.38;28.10;;;17.20;99.90;;;;;;5089101;28;20043;-79
2021/09/26 07:52:58;;;;;;;29.83;21.65;;;17.20;99.90;;;;;;5090307;28;20066;-77
2021/09/26 07:55:23;;;;;;;31.40;22.38;;;17.20;99.90;;;;;;5108161;28;20035;-80
2021/09/26 07:57:49;;;;;;;32.65;21.17;;;17.20;99.90;;;;;;5106593;28;20462;-80
2021/09/26 08:00:16;;;;;;;27.67;20.80;;;17.30;99.90;;;;;;5131135;28;20534;-79
2021/09/26 08:02:42;;;;;;;33.00;21.30;;;17.30;99.90;;;;;;5093229;28;20035;-75
2021/09/26 08:05:09;;;;;;;24.63;19.92;;;17.30;99.90;;;;;;5108245;28;20046;-77
2021/09/26 08:07:37;;;;;;;24.35;17.08;;;17.20;99.90;;;;;;5095445;28;20046;-78
2021/09/26 08:10:05;;;;;;;26.13;18.05;;;17.20;99.90;;;;;;5110141;28;20074;-77
2021/09/26 08:12:31;;;;;;;23.13;16.05;;;17.40;99.90;;;;;;5099906;28;20043;-79
2021/09/26 08:14:57;;;;;;;23.98;13.43;;;17.60;99.90;;;;;;5104437;28;20031;-77
2021/09/26 08:17:26;;;;;;;25.52;13.27;;;17.60;99.90;;;;;;5109338;28;20071;-80
2021/09/26 08:19:52;;;;;;;23.45;17.70;;;17.90;99.90;;;;;;5085182;28;20036;-79
2021/09/26 08:22:18;;;;;;;27.67;17.67;;;18.00;99.90;;;;;;5087475;28;20078;-80
2021/09/26 08:24:44;;;;;;;29.95;19.60;;;17.80;99.90;;;;;;5104953;28;20078;-78
2021/09/26 08:27:10;;;;;;;24.73;19.33;;;17.80;99.90;;;;;;5105778;28;20124;-77
2021/09/26 08:29:36;;;;;;;20.58;15.93;;;17.70;99.90;;;;;;5091130;28;20170;-76
2021/09/26 08:32:04;;;;;;;21.40;17.55;;;17.80;99.90;;;;;;5078273;28;20126;-77
2021/09/26 08:34:31;;;;;;;28.00;19.60;;;17.80;99.90;;;;;;5099703;28;20052;-77
2021/09/26 08:36:56;;;;;;;22.58;17.73;;;17.80;99.90;;;;;;5108407;28;20032;-78
2021/09/26 08:39:22;;;;;;;26.85;17.77;;;17.80;99.90;;;;;;5085076;28;20104;-79
2021/09/26 08:41:52;;;;;;;26.33;16.00;;;17.80;99.90;;;;;;5101516;28;20051;-77
2021/09/26 08:44:21;;;;;;;23.42;16.50;;;17.90;99.90;;;;;;5101474;28;20052;-78
2021/09/26 08:46:47;;;;;;;23.42;16.55;;;17.90;99.90;;;;;;5103362;28;20147;-79
2021/09/26 08:49:15;;;;;;;24.70;17.10;;;18.00;99.90;;;;;;5078622;28;20563;-78
2021/09/26 08:51:40;;;;;;;20.00;13.98;;;18.10;99.90;;;;;;5099846;27;20206;-78
2021/09/26 08:54:06;;;;;;;21.70;17.10;;;18.20;99.90;;;;;;5100691;28;20588;-78
2021/09/26 08:56:32;;;;;;;19.15;12.32;;;18.20;99.90;;;;;;5104416;28;20052;-78
2021/09/26 08:58:57;;;;;;;18.00;14.88;;;18.40;99.90;;;;;;5101267;28;20035;-78
2021/09/26 09:01:27;;;;;;;24.27;16.85;;;18.40;99.90;;;;;;5103567;27;20351;-80
2021/09/26 09:03:54;;;;;;;20.70;16.15;;;18.50;99.90;;;;;;5096875;27;21019;-77
2021/09/26 09:06:40;;;;;;;19.25;14.43;;;18.50;99.90;;;;;;5083584;28;20469;-79
2021/09/26 09:09:15;;;;;;;19.17;12.40;;;18.50;99.90;;;;;;5086086;28;20043;-78
2021/09/26 09:11:59;;;;;;;16.00;11.15;;;18.50;99.90;;;;;;5108156;28;20085;-77
2021/09/26 09:14:25;;;;;;;14.80;12.18;;;18.50;99.90;;;;;;5078709;28;20055;-77
2021/09/26 09:16:55;;;;;;;16.17;11.45;;;18.50;99.90;;;;;;5107744;28;20120;-78
2021/09/26 09:19:22;;;;;;;16.15;12.63;;;18.60;99.90;;;;;;5108845;27;20077;-80
2021/09/26 09:22:06;;;;;;;15.75;10.77;;;18.60;99.90;;;;;;5094234;28;20040;-79
2021/09/26 09:24:41;;;;;;;21.90;12.80;;;18.70;99.90;;;;;;5111346;28;20510;-78
2021/09/26 09:27:08;;;;;;;17.75;12.80;;;18.70;99.90;;;;;;5110755;28;20540;-78
2021/09/26 09:29:37;;;;;;;18.83;12.20;;;18.80;99.90;;;;;;5091364;28;20493;-78
2021/09/26 09:32:17;;;;;;;19.48;12.27;;;18.90;99.90;;;;;;5108582;27;20040;-78
2021/09/26 09:34:43;;;;;;;18.73;12.60;;;19.00;99.90;;;;;;5107849;28;20105;-77
2021/09/26 09:37:24;;;;;;;21.00;12.98;;;19.00;99.90;;;;;;5106486;27;21373;-79
2021/09/26 09:40:18;;;;;;;19.00;13.45;;;19.10;99.90;;;;;;5089316;28;20478;-77
2021/09/26 09:55:01;;;;;;;19.15;13.13;;;18.90;99.90;;;;;;5122313;27;20322;-79
2021/09/26 09:57:30;;;;;;;17.52;12.77;;;19.50;99.90;;;;;;5092905;28;20046;-82
2021/09/26 09:59:56;;;;;;;16.83;12.77;;;19.60;99.90;;;;;;5103974;28;20515;-80
2021/09/26 10:02:34;;;;;;;14.30;12.15;;;19.70;99.90;;;;;;5091070;28;20084;-82
2021/09/26 10:05:03;;;;;;;15.05;12.00;;;19.80;99.90;;;;;;5063005;28;20098;-79
2021/09/26 10:07:30;;;;;;;16.35;11.95;;;19.90;99.90;;;;;;5064228;28;20047;-76
2021/09/26 10:09:57;;;;;;;18.27;11.00;;;19.90;99.90;;;;;;5090688;28;20115;-79
2021/09/26 10:12:31;;;;;;;19.52;11.85;;;20.10;99.90;;;;;;5088559;28;20072;-76
2021/09/26 10:15:03;;;;;;;13.23;9.52;;;20.20;99.90;;;;;;5088275;28;20054;-76
2021/09/26 10:17:30;;;;;;;13.70;8.73;;;20.30;99.90;;;;;;5068811;28;20101;-76
2021/09/26 10:19:55;;;;;;;18.20;12.30;;;20.50;99.90;;;;;;5088760;28;20076;-78
2021/09/26 10:22:22;;;;;;;14.40;11.73;;;20.70;99.90;;;;;;5110604;28;20079;-76
2021/09/26 10:24:52;;;;;;;11.70;10.07;;;20.60;99.90;;;;;;5063444;28;20044;-76
2021/09/26 10:27:22;;;;;;;15.57;11.45;;;20.80;99.90;;;;;;5083966;28;20058;-78
2021/09/26 10:30:07;;;;;;;15.82;9.95;;;21.00;99.90;;;;;;5065112;28;20105;-77
2021/09/26 10:32:34;;;;;;;21.73;11.55;;;21.10;99.90;;;;;;5083364;28;20143;-78
2021/09/26 10:35:00;;;;;;;17.50;10.90;;;21.10;99.90;;;;;;5084319;28;20056;-79
2021/09/26 10:37:28;;;;;;;18.13;10.63;;;21.20;99.90;;;;;;5071058;28;20134;-80
2021/09/26 10:39:54;;;;;;;15.13;11.18;;;21.20;99.90;;;;;;5070075;28;20394;-79
2021/09/26 10:42:24;;;;;;;16.83;10.15;;;21.30;99.90;;;;;;5070793;28;20091;-81
2021/09/26 10:44:55;;;;;;;17.17;10.00;;;21.50;99.90;;;;;;5066927;28;20429;-80
2021/09/26 10:47:26;;;;;;;15.02;10.05;;;21.50;99.90;;;;;;5079756;28;20044;-80
2021/09/26 10:50:01;;;;;;;12.93;9.73;;;21.70;99.90;;;;;;5072090;28;20490;-81
2021/09/26 10:52:29;;;;;;;12.13;9.75;;;21.90;99.90;;;;;;5062300;28;20055;-80
2021/09/26 10:55:45;;;;;;;14.65;9.65;;;22.10;99.90;;;;;;5145786;27;20438;-77
2021/09/26 10:58:15;;;;;;;18.65;10.20;;;22.40;99.90;;;;;;5137483;27;20138;-79
2021/09/26 11:00:58;;;;;;;15.15;9.43;;;22.70;99.90;;;;;;5116033;28;20042;-78
2021/09/26 11:03:39;;;;;;;12.07;9.15;;;22.70;99.90;;;;;;5118656;27;20162;-77
2021/09/26 11:06:25;;;;;;;14.90;9.40;;;22.80;99.90;;;;;;5117542;28;20096;-76
2021/09/26 11:08:53;;;;;;;14.15;8.63;;;22.60;99.90;;;;;;5130739;27;20407;-77
2021/09/26 11:11:39;;;;;;;14.05;8.80;;;22.40;99.90;;;;;;5128516;27;20410;-78
2021/09/26 11:14:07;;;;;;;13.77;9.05;;;22.20;99.90;;;;;;5124407;27;20048;-78
2021/09/26 11:16:51;;;;;;;11.23;9.00;;;22.10;99.90;;;;;;5128457;27;20427;-78
2021/09/26 11:19:18;;;;;;;11.35;8.52;;;22.00;99.90;;;;;;5124723;27;20489;-76
2021/09/26 11:21:44;;;;;;;14.98;9.45;;;22.00;99.90;;;;;;5134349;27;20039;-76
2021/09/26 11:24:28;;;;;;;12.85;9.20;;;21.90;99.90;;;;;;5121456;27;20489;-78
2021/09/26 11:27:01;;;;;;;21.92;8.25;;;21.80;99.90;;;;;;5131602;27;20146;-76
2021/09/26 11:29:38;;;;;;;11.40;9.15;;;21.70;99.90;;;;;;5127373;28;20514;-77
2021/09/26 11:32:29;;;;;;;15.10;8.82;;;21.50;99.90;;;;;;5123640;28;20048;-78
2021/09/26 11:35:05;;;;;;;13.48;8.70;;;21.50;99.90;;;;;;5100263;27;20360;-77
2021/09/26 11:37:40;;;;;;;13.85;9.40;;;21.40;99.90;;;;;;5127106;27;20039;-81
2021/09/26 11:40:16;;;;;;;12.63;8.90;;;21.40;99.90;;;;;;5129516;27;20071;-77
2021/09/26 11:42:55;;;;;;;13.98;10.60;;;21.30;99.90;;;;;;5124777;27;20050;-80
2021/09/26 11:45:31;;;;;;;17.10;10.73;;;21.30;99.90;;;;;;5102770;28;20160;-82
2021/09/26 11:48:05;;;;;;;15.23;10.48;;;21.30;99.90;;;;;;5125642;27;20047;-82
2021/09/26 11:50:33;;;;;;;13.50;10.30;;;21.30;99.90;;;;;;5104304;27;20403;-81
2021/09/26 11:52:59;;;;;;;13.63;10.43;;;21.20;99.90;;;;;;5133564;27;20035;-83
2021/09/26 11:55:29;;;;;;;15.27;10.77;;;21.20;99.90;;;;;;5120523;27;20054;-82
2021/09/26 11:57:57;;;;;;;19.70;10.95;;;21.30;99.90;;;;;;5134331;27;20031;-82
2021/09/26 12:00:29;;;;;;;15.65;10.57;;;21.30;99.90;;;;;;5144713;27;20370;-83
2021/09/26 12:02:55;;;;;;;15.63;11.13;;;21.30;99.90;;;;;;5127537;27;20039;-83
2021/09/26 12:05:35;;;;;;;15.43;11.18;;;21.30;99.90;;;;;;5107078;28;20043;-83
2021/09/26 12:08:40;;;;;;;16.42;11.18;;;21.30;99.90;;;;;;5112820;28;20059;-84
2021/09/26 12:11:07;;;;;;;19.33;11.37;;;21.40;99.90;;;;;;5111884;27;20055;-83
2021/09/26 12:13:53;;;;;;;16.05;11.13;;;21.30;99.90;;;;;;5108651;27;20051;-83
2021/09/26 12:16:20;;;;;;;17.98;10.65;;;21.40;99.90;;;;;;5100750;27;20051;-82
2021/09/26 12:18:55;;;;;;;13.70;9.57;;;21.40;99.90;;;;;;5113998;27;20040;-82
2021/09/26 12:21:36;;;;;;;15.18;10.25;;;21.40;99.90;;;;;;5085553;27;20113;-79
2021/09/26 12:24:09;;;;;;;19.25;10.90;;;21.40;99.90;;;;;;5096546;27;20200;-83
2021/09/26 12:26:40;;;;;;;15.23;10.48;;;21.40;99.90;;;;;;5114109;27;20489;-78
2021/09/26 12:29:22;;;;;;;15.77;11.23;;;21.40;99.90;;;;;;5113106;27;20092;-80
2021/09/26 12:31:54;;;;;;;17.77;10.93;;;21.40;99.90;;;;;;5101752;28;20378;-78
2021/09/26 12:34:33;;;;;;;15.32;10.55;;;21.30;99.90;;;;;;5105609;27;20035;-79
2021/09/26 12:36:59;;;;;;;14.38;10.98;;;21.30;99.90;;;;;;5098996;28;20058;-78
2021/09/26 12:39:30;;;;;;;16.25;11.63;;;21.20;99.90;;;;;;5094091;28;20427;-78
2021/09/26 12:41:58;;;;;;;14.90;10.70;;;21.10;99.90;;;;;;5109343;28;20044;-79
2021/09/26 12:44:33;;;;;;;18.25;10.52;;;21.00;99.90;;;;;;5113711;27;20374;-80
2021/09/26 12:47:04;;;;;;;14.25;11.02;;;21.00;99.90;;;;;;5110522;27;20055;-79
2021/09/26 12:49:32;;;;;;;15.80;10.85;;;21.20;99.90;;;;;;5093038;28;20055;-80